createdAt,value
2023-02-08T00:00:12.458Z,1036.51
2023-02-08T00:01:12.464Z,1036.48
2023-02-08T00:02:12.446Z,1036.44
2023-02-08T00:03:12.456Z,1036.44
2023-02-08T00:04:12.444Z,1036.45
2023-02-08T00:05:12.453Z,1036.43
2023-02-08T00:06:12.442Z,1036.41
2023-02-08T00:07:12.449Z,1036.40
2023-02-08T00:08:12.447Z,1036.39
2023-02-08T00:09:12.446Z,1036.36
2023-02-08T00:10:12.439Z,1036.35
2023-02-08T00:11:12.459Z,1036.38
2023-02-08T00:12:12.440Z,1036.38
2023-02-08T00:13:12.443Z,1036.38
2023-02-08T00:14:12.435Z,1036.38
2023-02-08T00:15:12.453Z,1036.34
2023-02-08T00:16:12.551Z,1036.30
2023-02-08T00:17:12.427Z,1036.30
2023-02-08T00:18:12.438Z,1036.30
2023-02-08T00:19:12.430Z,1036.26
2023-02-08T00:20:12.431Z,1036.30
2023-02-08T00:21:12.422Z,1036.27
2023-02-08T00:22:12.428Z,1036.30
2023-02-08T00:23:12.418Z,1036.28
2023-02-08T00:24:12.426Z,1036.27
2023-02-08T00:25:12.423Z,1036.27
2023-02-08T00:26:12.416Z,1036.27
2023-02-08T00:27:12.417Z,1036.30
2023-02-08T00:28:12.450Z,1036.27
2023-02-08T00:29:12.428Z,1036.27
2023-02-08T00:30:12.431Z,1036.28
2023-02-08T00:31:12.639Z,1036.35
2023-02-08T00:32:12.412Z,1036.30
2023-02-08T00:33:12.408Z,1036.30
2023-02-08T00:34:12.406Z,1036.33
2023-02-08T00:35:12.399Z,1036.30
2023-02-08T00:36:12.403Z,1036.35
2023-02-08T00:37:12.396Z,1036.37
2023-02-08T00:38:12.402Z,1036.40
2023-02-08T00:39:12.399Z,1036.39
2023-02-08T00:40:12.404Z,1036.39
2023-02-08T00:41:12.389Z,1036.45
2023-02-08T00:42:12.392Z,1036.40
2023-02-08T00:43:12.392Z,1036.39
2023-02-08T00:44:12.392Z,1036.39
2023-02-08T00:45:12.392Z,1036.35
2023-02-08T00:46:12.574Z,1036.35
2023-02-08T00:47:12.405Z,1036.35
2023-02-08T00:48:12.389Z,1036.29
2023-02-08T00:49:12.377Z,1036.28
2023-02-08T00:50:12.376Z,1036.24
2023-02-08T00:51:12.378Z,1036.29
2023-02-08T00:52:12.380Z,1036.26
2023-02-08T00:53:12.379Z,1036.26
2023-02-08T00:54:12.382Z,1036.28
2023-02-08T00:55:12.372Z,1036.31
2023-02-08T00:56:12.374Z,1036.31
2023-02-08T00:57:12.363Z,1036.29
2023-02-08T00:58:12.368Z,1036.32
2023-02-08T00:59:12.358Z,1036.31
2023-02-08T01:00:12.358Z,1036.34
2023-02-08T01:01:12.451Z,1036.30
2023-02-08T01:02:12.467Z,1036.32
2023-02-08T01:03:12.377Z,1036.31
2023-02-08T01:04:12.360Z,1036.34
2023-02-08T01:05:12.349Z,1036.32
2023-02-08T01:06:12.350Z,1036.36
2023-02-08T01:07:12.346Z,1036.34
2023-02-08T01:08:12.354Z,1036.37
2023-02-08T01:09:12.343Z,1036.36
2023-02-08T01:10:12.478Z,1036.40
2023-02-08T01:11:12.340Z,1036.39
2023-02-08T01:12:12.348Z,1036.38
2023-02-08T01:13:12.344Z,1036.34
2023-02-08T01:14:12.339Z,1036.38
2023-02-08T01:15:12.334Z,1036.35
2023-02-08T01:16:12.397Z,1036.34
2023-02-08T01:17:12.332Z,1036.37
2023-02-08T01:18:12.332Z,1036.37
2023-02-08T01:19:12.420Z,1036.35
2023-02-08T01:20:12.335Z,1036.34
2023-02-08T01:21:12.354Z,1036.34
2023-02-08T01:22:12.348Z,1036.28
2023-02-08T01:23:12.325Z,1036.32
2023-02-08T01:24:12.332Z,1036.33
2023-02-08T01:25:12.321Z,1036.31
2023-02-08T01:26:12.316Z,1036.27
2023-02-08T01:27:12.325Z,1036.26
2023-02-08T01:28:12.412Z,1036.27
2023-02-08T01:29:12.318Z,1036.27
2023-02-08T01:30:12.310Z,1036.27
2023-02-08T01:31:12.392Z,1036.27
2023-02-08T01:32:12.326Z,1036.25
2023-02-08T01:33:12.308Z,1036.22
2023-02-08T01:34:12.307Z,1036.23
2023-02-08T01:35:12.336Z,1036.24
2023-02-08T01:36:12.301Z,1036.22
2023-02-08T01:37:12.304Z,1036.25
2023-02-08T01:38:12.307Z,1036.23
2023-02-08T01:39:12.307Z,1036.22
2023-02-08T01:40:12.296Z,1036.20
2023-02-08T01:41:12.302Z,1036.23
2023-02-08T01:42:12.294Z,1036.24
2023-02-08T01:43:12.290Z,1036.24
2023-02-08T01:44:12.306Z,1036.24
2023-02-08T01:45:12.295Z,1036.23
2023-02-08T01:46:12.294Z,1036.21
2023-02-08T01:47:12.292Z,1036.21
2023-02-08T01:48:12.283Z,1036.19
2023-02-08T01:49:12.280Z,1036.20
2023-02-08T01:50:12.284Z,1036.18
2023-02-08T01:51:12.306Z,1036.20
2023-02-08T01:52:12.284Z,1036.19
2023-02-08T01:53:12.276Z,1036.17
2023-02-08T01:54:12.286Z,1036.19
2023-02-08T01:55:12.278Z,1036.19
2023-02-08T01:56:12.270Z,1036.15
2023-02-08T01:57:12.273Z,1036.15
2023-02-08T01:58:12.272Z,1036.18
2023-02-08T01:59:12.272Z,1036.11
2023-02-08T02:00:12.267Z,1036.11
2023-02-08T02:01:12.315Z,1036.14
2023-02-08T02:02:12.264Z,1036.13
2023-02-08T02:03:12.266Z,1036.13
2023-02-08T02:04:12.269Z,1036.13
2023-02-08T02:05:12.265Z,1036.13
2023-02-08T02:06:12.252Z,1036.11
2023-02-08T02:07:12.278Z,1036.10
2023-02-08T02:08:12.259Z,1036.08
2023-02-08T02:09:12.254Z,1036.07
2023-02-08T02:10:12.254Z,1036.08
2023-02-08T02:11:12.252Z,1036.01
2023-02-08T02:12:12.246Z,1036.00
2023-02-08T02:13:12.249Z,1036.02
2023-02-08T02:14:12.242Z,1036.04
2023-02-08T02:15:12.251Z,1036.03
2023-02-08T02:16:12.272Z,1036.04
2023-02-08T02:17:12.236Z,1036.07
2023-02-08T02:18:12.235Z,1036.09
2023-02-08T02:19:12.236Z,1036.03
2023-02-08T02:20:12.239Z,1036.03
2023-02-08T02:21:12.243Z,1036.04
2023-02-08T02:22:12.229Z,1036.11
2023-02-08T02:23:12.245Z,1036.12
2023-02-08T02:24:12.225Z,1036.08
2023-02-08T02:25:12.232Z,1036.07
2023-02-08T02:26:12.221Z,1036.05
2023-02-08T02:27:12.236Z,1036.09
2023-02-08T02:28:12.273Z,1036.08
2023-02-08T02:29:12.218Z,1036.07
2023-02-08T02:30:12.222Z,1036.08
2023-02-08T02:31:12.224Z,1036.08
2023-02-08T02:32:12.212Z,1036.06
2023-02-08T02:33:12.213Z,1036.06
2023-02-08T02:34:12.207Z,1036.09
2023-02-08T02:35:12.216Z,1036.07
2023-02-08T02:36:12.214Z,1036.10
2023-02-08T02:37:12.217Z,1036.07
2023-02-08T02:38:12.208Z,1036.05
2023-02-08T02:39:12.229Z,1036.08
2023-02-08T02:40:12.197Z,1036.06
2023-02-08T02:41:12.196Z,1036.06
2023-02-08T02:42:12.196Z,1036.08
2023-02-08T02:43:12.209Z,1036.11
2023-02-08T02:44:12.224Z,1036.10
2023-02-08T02:45:12.189Z,1036.08
2023-02-08T02:46:12.296Z,1036.08
2023-02-08T02:47:12.196Z,1036.07
2023-02-08T02:48:12.210Z,1036.09
2023-02-08T02:49:12.185Z,1036.11
2023-02-08T02:50:12.191Z,1036.11
2023-02-08T02:51:12.187Z,1036.11
2023-02-08T02:52:12.195Z,1036.17
2023-02-08T02:53:12.185Z,1036.13
2023-02-08T02:54:12.184Z,1036.17
2023-02-08T02:55:12.195Z,1036.15
2023-02-08T02:56:12.190Z,1036.13
2023-02-08T02:57:12.185Z,1036.09
2023-02-08T02:58:12.182Z,1036.12
2023-02-08T02:59:12.173Z,1036.14
2023-02-08T03:00:12.183Z,1036.10
2023-02-08T03:01:12.198Z,1036.16
2023-02-08T03:02:12.167Z,1036.11
2023-02-08T03:03:12.166Z,1036.12
2023-02-08T03:04:12.232Z,1036.12
2023-02-08T03:05:12.164Z,1036.19
2023-02-08T03:06:12.170Z,1036.12
2023-02-08T03:07:12.159Z,1036.12
2023-02-08T03:08:12.164Z,1036.10
2023-02-08T03:09:12.163Z,1036.10
2023-02-08T03:10:12.176Z,1036.09
2023-02-08T03:11:12.182Z,1036.15
2023-02-08T03:12:12.160Z,1036.13
2023-02-08T03:13:12.150Z,1036.13
2023-02-08T03:14:12.150Z,1036.15
2023-02-08T03:15:12.151Z,1036.16
2023-02-08T03:16:12.161Z,1036.12
2023-02-08T03:17:12.142Z,1036.06
2023-02-08T03:18:12.156Z,1036.08
2023-02-08T03:19:12.161Z,1036.06
2023-02-08T03:20:12.139Z,1036.07
2023-02-08T03:21:12.155Z,1036.10
2023-02-08T03:22:12.136Z,1036.09
2023-02-08T03:23:12.147Z,1036.07
2023-02-08T03:24:12.153Z,1036.06
2023-02-08T03:25:12.132Z,1036.09
2023-02-08T03:26:12.140Z,1036.07
2023-02-08T03:27:12.153Z,1036.13
2023-02-08T03:28:12.194Z,1036.13
2023-02-08T03:29:12.129Z,1036.14
2023-02-08T03:30:12.122Z,1036.19
2023-02-08T03:31:12.296Z,1036.19
2023-02-08T03:32:12.122Z,1036.18
2023-02-08T03:33:12.119Z,1036.20
2023-02-08T03:34:12.122Z,1036.15
2023-02-08T03:35:12.114Z,1036.16
2023-02-08T03:36:12.112Z,1036.22
2023-02-08T03:37:12.129Z,1036.20
2023-02-08T03:38:12.131Z,1036.17
2023-02-08T03:39:12.117Z,1036.22
2023-02-08T03:40:12.112Z,1036.18
2023-02-08T03:41:12.111Z,1036.21
2023-02-08T03:42:12.111Z,1036.25
2023-02-08T03:43:12.137Z,1036.20
2023-02-08T03:44:12.105Z,1036.27
2023-02-08T03:45:12.119Z,1036.24
2023-02-08T03:46:12.121Z,1036.27
2023-02-08T03:47:12.099Z,1036.28
2023-02-08T03:48:12.106Z,1036.28
2023-02-08T03:49:12.100Z,1036.29
2023-02-08T03:50:12.098Z,1036.30
2023-02-08T03:51:12.087Z,1036.30
2023-02-08T03:52:12.086Z,1036.27
2023-02-08T03:53:12.090Z,1036.28
2023-02-08T03:54:12.083Z,1036.29
2023-02-08T03:55:12.079Z,1036.28
2023-02-08T03:56:12.082Z,1036.22
2023-02-08T03:57:12.080Z,1036.26
2023-02-08T03:58:12.082Z,1036.28
2023-02-08T03:59:12.092Z,1036.28
2023-02-08T04:00:12.071Z,1036.25
2023-02-08T04:01:12.109Z,1036.24
2023-02-08T04:02:12.139Z,1036.24
2023-02-08T04:03:12.069Z,1036.24
2023-02-08T04:04:12.067Z,1036.24
2023-02-08T04:05:12.067Z,1036.22
2023-02-08T04:06:12.057Z,1036.20
2023-02-08T04:07:12.063Z,1036.27
2023-02-08T04:08:12.055Z,1036.27
2023-02-08T04:09:12.064Z,1036.23
2023-02-08T04:10:12.070Z,1036.23
2023-02-08T04:11:12.049Z,1036.25
2023-02-08T04:12:12.046Z,1036.20
2023-02-08T04:13:12.054Z,1036.27
2023-02-08T04:14:12.056Z,1036.25
2023-02-08T04:15:12.062Z,1036.24
2023-02-08T04:16:12.122Z,1036.22
2023-02-08T04:17:12.038Z,1036.23
2023-02-08T04:18:12.033Z,1036.19
2023-02-08T04:19:12.034Z,1036.18
2023-02-08T04:20:12.035Z,1036.21
2023-02-08T04:21:12.030Z,1036.19
2023-02-08T04:22:12.034Z,1036.15
2023-02-08T04:23:12.034Z,1036.14
2023-02-08T04:24:12.033Z,1036.16
2023-02-08T04:25:12.029Z,1036.15
2023-02-08T04:26:12.024Z,1036.16
2023-02-08T04:27:12.026Z,1036.14
2023-02-08T04:28:12.168Z,1036.11
2023-02-08T04:29:12.026Z,1036.09
2023-02-08T04:30:12.018Z,1036.13
2023-02-08T04:31:12.242Z,1036.11
2023-02-08T04:32:12.021Z,1036.07
2023-02-08T04:33:12.012Z,1036.12
2023-02-08T04:34:12.017Z,1036.11
2023-02-08T04:35:12.023Z,1036.08
2023-02-08T04:36:12.021Z,1036.08
2023-02-08T04:37:12.017Z,1036.06
2023-02-08T04:38:12.014Z,1036.05
2023-02-08T04:39:12.010Z,1036.12
2023-02-08T04:40:12.025Z,1036.07
2023-02-08T04:41:12.007Z,1036.05
2023-02-08T04:42:11.997Z,1036.06
2023-02-08T04:43:12.009Z,1036.03
2023-02-08T04:44:11.994Z,1036.07
2023-02-08T04:45:12.009Z,1036.08
2023-02-08T04:46:12.049Z,1036.11
2023-02-08T04:47:12.025Z,1036.10
2023-02-08T04:48:12.155Z,1036.06
2023-02-08T04:49:11.990Z,1036.10
2023-02-08T04:50:11.991Z,1036.11
2023-02-08T04:51:11.986Z,1036.09
2023-02-08T04:52:11.984Z,1036.09
2023-02-08T04:53:11.982Z,1036.10
2023-02-08T04:54:11.992Z,1036.12
2023-02-08T04:55:11.979Z,1036.15
2023-02-08T04:56:11.976Z,1036.16
2023-02-08T04:57:11.984Z,1036.19
2023-02-08T04:58:11.980Z,1036.15
2023-02-08T04:59:11.981Z,1036.14
2023-02-08T05:00:11.987Z,1036.15
2023-02-08T05:01:11.970Z,1036.13
2023-02-08T05:02:11.967Z,1036.12
2023-02-08T05:03:11.985Z,1036.11
2023-02-08T05:04:11.971Z,1036.14
2023-02-08T05:05:12.027Z,1036.14
2023-02-08T05:06:11.959Z,1036.12
2023-02-08T05:07:11.954Z,1036.14
2023-02-08T05:08:11.956Z,1036.10
2023-02-08T05:09:11.952Z,1036.11
2023-02-08T05:10:11.960Z,1036.12
2023-02-08T05:11:11.949Z,1036.10
2023-02-08T05:12:11.947Z,1036.08
2023-02-08T05:13:11.943Z,1036.06
2023-02-08T05:14:11.950Z,1036.04
2023-02-08T05:15:11.939Z,1036.04
2023-02-08T05:16:12.020Z,1036.05
2023-02-08T05:17:11.940Z,1036.03
2023-02-08T05:18:11.940Z,1036.02
2023-02-08T05:19:11.958Z,1036.00
2023-02-08T05:20:11.937Z,1036.05
2023-02-08T05:21:11.939Z,1036.03
2023-02-08T05:22:11.943Z,1036.07
2023-02-08T05:23:11.932Z,1035.99
2023-02-08T05:24:11.932Z,1036.02
2023-02-08T05:25:11.932Z,1036.04
2023-02-08T05:26:11.928Z,1036.02
2023-02-08T05:27:11.925Z,1036.07
2023-02-08T05:28:11.968Z,1036.06
2023-02-08T05:29:11.918Z,1036.06
2023-02-08T05:30:11.915Z,1036.04
2023-02-08T05:31:12.002Z,1036.03
2023-02-08T05:32:11.930Z,1036.07
2023-02-08T05:33:11.917Z,1036.06
2023-02-08T05:34:11.914Z,1036.10
2023-02-08T05:35:11.940Z,1036.09
2023-02-08T05:36:11.909Z,1036.11
2023-02-08T05:37:11.903Z,1036.06
2023-02-08T05:38:11.898Z,1036.06
2023-02-08T05:39:11.904Z,1036.07
2023-02-08T05:40:11.913Z,1036.09
2023-02-08T05:41:11.900Z,1036.12
2023-02-08T05:42:11.895Z,1036.09
2023-02-08T05:43:11.895Z,1036.10
2023-02-08T05:44:11.887Z,1036.09
2023-02-08T05:45:11.894Z,1036.09
2023-02-08T05:46:11.888Z,1036.09
2023-02-08T05:47:11.892Z,1036.10
2023-02-08T05:48:11.885Z,1036.07
2023-02-08T05:49:11.879Z,1036.03
2023-02-08T05:50:11.883Z,1036.07
2023-02-08T05:51:11.898Z,1036.01
2023-02-08T05:52:11.880Z,1036.01
2023-02-08T05:53:11.876Z,1036.02
2023-02-08T05:54:11.877Z,1036.04
2023-02-08T05:55:11.885Z,1036.01
2023-02-08T05:56:11.866Z,1035.99
2023-02-08T05:57:11.868Z,1035.99
2023-02-08T05:58:11.866Z,1036.00
2023-02-08T05:59:11.865Z,1036.01
2023-02-08T06:00:11.864Z,1036.01
2023-02-08T06:01:11.865Z,1036.02
2023-02-08T06:02:11.853Z,1036.02
2023-02-08T06:03:11.936Z,1036.05
2023-02-08T06:04:11.925Z,1036.09
2023-02-08T06:05:11.853Z,1036.06
2023-02-08T06:06:11.882Z,1036.05
2023-02-08T06:07:11.861Z,1036.06
2023-02-08T06:08:11.844Z,1036.09
2023-02-08T06:09:11.843Z,1036.12
2023-02-08T06:10:11.848Z,1036.14
2023-02-08T06:11:11.843Z,1036.20
2023-02-08T06:12:11.841Z,1036.20
2023-02-08T06:13:11.833Z,1036.17
2023-02-08T06:14:11.833Z,1036.20
2023-02-08T06:15:11.833Z,1036.20
2023-02-08T06:16:11.849Z,1036.22
2023-02-08T06:17:11.832Z,1036.21
2023-02-08T06:18:11.869Z,1036.19
2023-02-08T06:19:11.823Z,1036.21
2023-02-08T06:20:11.827Z,1036.21
2023-02-08T06:21:11.822Z,1036.23
2023-02-08T06:22:11.822Z,1036.24
2023-02-08T06:23:11.835Z,1036.24
2023-02-08T06:24:11.819Z,1036.25
2023-02-08T06:25:11.818Z,1036.27
2023-02-08T06:26:11.806Z,1036.25
2023-02-08T06:27:11.814Z,1036.23
2023-02-08T06:28:11.909Z,1036.29
2023-02-08T06:29:11.807Z,1036.31
2023-02-08T06:30:11.827Z,1036.33
2023-02-08T06:31:11.815Z,1036.35
2023-02-08T06:32:11.934Z,1036.39
2023-02-08T06:33:13.393Z,1036.41
2023-02-08T06:34:11.798Z,1036.40
2023-02-08T06:35:11.801Z,1036.45
2023-02-08T06:36:11.790Z,1036.46
2023-02-08T06:37:11.798Z,1036.50
2023-02-08T06:38:11.788Z,1036.48
2023-02-08T06:39:11.807Z,1036.46
2023-02-08T06:40:11.784Z,1036.44
2023-02-08T06:41:11.784Z,1036.45
2023-02-08T06:42:11.785Z,1036.47
2023-02-08T06:43:11.786Z,1036.45
2023-02-08T06:44:11.779Z,1036.46
2023-02-08T06:45:13.666Z,1036.40
2023-02-08T06:46:11.807Z,1036.40
2023-02-08T06:47:11.779Z,1036.45
2023-02-08T06:48:11.777Z,1036.44
2023-02-08T06:49:11.776Z,1036.47
2023-02-08T06:50:11.763Z,1036.44
2023-02-08T06:51:11.764Z,1036.49
2023-02-08T06:52:11.768Z,1036.49
2023-02-08T06:53:11.760Z,1036.50
2023-02-08T06:54:11.758Z,1036.54
2023-02-08T06:55:11.778Z,1036.53
2023-02-08T06:56:11.758Z,1036.51
2023-02-08T06:57:11.758Z,1036.53
2023-02-08T06:58:11.756Z,1036.51
2023-02-08T06:59:11.759Z,1036.53
2023-02-08T07:00:11.745Z,1036.51
2023-02-08T07:01:11.773Z,1036.52
2023-02-08T07:02:11.802Z,1036.52
2023-02-08T07:03:11.740Z,1036.53
2023-02-08T07:04:11.738Z,1036.51
2023-02-08T07:05:11.743Z,1036.49
2023-02-08T07:06:11.738Z,1036.51
2023-02-08T07:07:11.749Z,1036.51
2023-02-08T07:08:11.731Z,1036.46
2023-02-08T07:09:11.731Z,1036.44
2023-02-08T07:10:11.742Z,1036.42
2023-02-08T07:11:11.751Z,1036.40
2023-02-08T07:12:11.733Z,1036.40
2023-02-08T07:13:11.731Z,1036.40
2023-02-08T07:14:11.720Z,1036.40
2023-02-08T07:15:11.722Z,1036.42
2023-02-08T07:16:11.775Z,1036.43
2023-02-08T07:17:11.722Z,1036.45
2023-02-08T07:18:11.713Z,1036.43
2023-02-08T07:19:11.725Z,1036.45
2023-02-08T07:20:11.732Z,1036.43
2023-02-08T07:21:11.723Z,1036.45
2023-02-08T07:22:11.705Z,1036.45
2023-02-08T07:23:11.706Z,1036.44
2023-02-08T07:24:11.702Z,1036.40
2023-02-08T07:25:11.715Z,1036.39
2023-02-08T07:26:11.697Z,1036.38
2023-02-08T07:27:11.718Z,1036.38
2023-02-08T07:28:11.710Z,1036.38
2023-02-08T07:29:11.703Z,1036.41
2023-02-08T07:30:11.692Z,1036.43
2023-02-08T07:31:11.692Z,1036.41
2023-02-08T07:32:11.817Z,1036.43
2023-02-08T07:33:11.703Z,1036.43
2023-02-08T07:34:11.696Z,1036.40
2023-02-08T07:35:11.690Z,1036.44
2023-02-08T07:36:11.692Z,1036.42
2023-02-08T07:37:11.699Z,1036.43
2023-02-08T07:38:11.696Z,1036.40
2023-02-08T07:39:11.683Z,1036.47
2023-02-08T07:40:11.686Z,1036.43
2023-02-08T07:41:11.685Z,1036.44
2023-02-08T07:42:11.681Z,1036.41
2023-02-08T07:43:11.704Z,1036.37
2023-02-08T07:44:11.675Z,1036.33
2023-02-08T07:45:11.677Z,1036.33
2023-02-08T07:46:11.711Z,1036.32
2023-02-08T07:47:11.676Z,1036.31
2023-02-08T07:48:11.665Z,1036.30
2023-02-08T07:49:11.673Z,1036.29
2023-02-08T07:50:11.662Z,1036.29
2023-02-08T07:51:11.670Z,1036.32
2023-02-08T07:52:11.660Z,1036.30
2023-02-08T07:53:11.659Z,1036.32
2023-02-08T07:54:11.665Z,1036.35
2023-02-08T07:55:11.666Z,1036.31
2023-02-08T07:56:11.662Z,1036.32
2023-02-08T07:57:11.661Z,1036.35
2023-02-08T07:58:11.662Z,1036.36
2023-02-08T07:59:11.670Z,1036.34
2023-02-08T08:00:11.660Z,1036.29
2023-02-08T08:01:21.822Z,1036.34
2023-02-08T08:02:11.656Z,1036.34
2023-02-08T08:03:11.650Z,1036.33
2023-02-08T08:04:11.670Z,1036.36
2023-02-08T08:05:11.681Z,1036.33
2023-02-08T08:06:11.636Z,1036.35
2023-02-08T08:07:11.644Z,1036.36
2023-02-08T08:08:11.641Z,1036.38
2023-02-08T08:09:11.646Z,1036.36
2023-02-08T08:10:11.640Z,1036.37
2023-02-08T08:11:11.630Z,1036.41
2023-02-08T08:12:11.635Z,1036.40
2023-02-08T08:13:11.635Z,1036.39
2023-02-08T08:14:11.636Z,1036.42
2023-02-08T08:15:11.642Z,1036.46
2023-02-08T08:16:11.740Z,1036.43
2023-02-08T08:17:12.019Z,1036.45
2023-02-08T08:18:11.631Z,1036.44
2023-02-08T08:19:11.640Z,1036.48
2023-02-08T08:20:11.624Z,1036.47
2023-02-08T08:21:11.628Z,1036.50
2023-02-08T08:22:11.622Z,1036.50
2023-02-08T08:23:11.624Z,1036.54
2023-02-08T08:24:11.679Z,1036.46
2023-02-08T08:25:11.612Z,1036.48
2023-02-08T08:26:11.623Z,1036.46
2023-02-08T08:27:11.608Z,1036.47
2023-02-08T08:28:11.685Z,1036.46
2023-02-08T08:29:11.608Z,1036.47
2023-02-08T08:30:11.607Z,1036.54
2023-02-08T08:31:11.838Z,1036.50
2023-02-08T08:32:11.997Z,1036.56
2023-02-08T08:33:11.606Z,1036.53
2023-02-08T08:34:11.648Z,1036.56
2023-02-08T08:35:11.615Z,1036.53
2023-02-08T08:36:11.605Z,1036.50
2023-02-08T08:37:11.596Z,1036.48
2023-02-08T08:38:11.594Z,1036.49
2023-02-08T08:39:11.599Z,1036.45
2023-02-08T08:40:11.594Z,1036.45
2023-02-08T08:41:11.591Z,1036.47
2023-02-08T08:42:11.599Z,1036.41
2023-02-08T08:43:11.601Z,1036.38
2023-02-08T08:44:11.607Z,1036.43
2023-02-08T08:45:11.622Z,1036.44
2023-02-08T08:46:11.721Z,1036.51
2023-02-08T08:47:11.611Z,1036.51
2023-02-08T08:48:11.589Z,1036.57
2023-02-08T08:49:11.590Z,1036.54
2023-02-08T08:50:11.580Z,1036.56
2023-02-08T08:51:11.585Z,1036.57
2023-02-08T08:52:11.586Z,1036.52
2023-02-08T08:53:11.578Z,1036.51
2023-02-08T08:54:11.589Z,1036.52
2023-02-08T08:55:11.575Z,1036.53
2023-02-08T08:56:11.588Z,1036.51
2023-02-08T08:57:11.574Z,1036.49
2023-02-08T08:58:11.573Z,1036.49
2023-02-08T08:59:11.571Z,1036.48
2023-02-08T09:00:11.574Z,1036.53
2023-02-08T09:01:11.570Z,1036.47
2023-02-08T09:02:11.567Z,1036.44
2023-02-08T09:03:11.682Z,1036.47
2023-02-08T09:04:11.568Z,1036.45
2023-02-08T09:05:11.582Z,1036.44
2023-02-08T09:06:11.572Z,1036.45
2023-02-08T09:07:11.569Z,1036.43
2023-02-08T09:08:11.561Z,1036.47
2023-02-08T09:09:11.569Z,1036.46
2023-02-08T09:10:11.561Z,1036.49
2023-02-08T09:11:11.568Z,1036.47
2023-02-08T09:12:11.566Z,1036.49
2023-02-08T09:13:11.625Z,1036.48
2023-02-08T09:14:11.576Z,1036.48
2023-02-08T09:15:11.556Z,1036.43
2023-02-08T09:16:11.660Z,1036.44
2023-02-08T09:17:11.563Z,1036.43
2023-02-08T09:18:11.560Z,1036.43
2023-02-08T09:19:11.618Z,1036.44
2023-02-08T09:20:11.549Z,1036.41
2023-02-08T09:21:11.561Z,1036.38
2023-02-08T09:22:11.550Z,1036.42
2023-02-08T09:23:11.548Z,1036.41
2023-02-08T09:24:11.551Z,1036.41
2023-02-08T09:25:11.558Z,1036.37
2023-02-08T09:26:11.552Z,1036.37
2023-02-08T09:27:11.547Z,1036.30
2023-02-08T09:28:11.589Z,1036.35
2023-02-08T09:29:11.546Z,1036.31
2023-02-08T09:30:11.560Z,1036.34
2023-02-08T09:31:11.662Z,1036.32
2023-02-08T09:32:11.619Z,1036.34
2023-02-08T09:33:11.545Z,1036.36
2023-02-08T09:34:11.550Z,1036.36
2023-02-08T09:35:11.580Z,1036.31
2023-02-08T09:36:11.545Z,1036.32
2023-02-08T09:37:11.552Z,1036.33
2023-02-08T09:38:11.554Z,1036.35
2023-02-08T09:39:11.552Z,1036.29
2023-02-08T09:40:11.549Z,1036.34
2023-02-08T09:41:11.554Z,1036.32
2023-02-08T09:42:11.549Z,1036.31
2023-02-08T09:43:11.556Z,1036.25
2023-02-08T09:44:11.562Z,1036.18
2023-02-08T09:45:11.560Z,1036.20
2023-02-08T09:46:11.557Z,1036.08
2023-02-08T09:47:11.559Z,1036.14
2023-02-08T09:48:11.559Z,1036.06
2023-02-08T09:49:11.563Z,1036.11
2023-02-08T09:50:11.574Z,1036.06
2023-02-08T09:51:11.601Z,1036.09
2023-02-08T09:52:11.577Z,1036.08
2023-02-08T09:53:11.575Z,1036.03
2023-02-08T09:54:11.581Z,1036.00
2023-02-08T09:55:11.581Z,1036.03
2023-02-08T09:56:11.586Z,1036.00
2023-02-08T09:57:11.592Z,1035.97
2023-02-08T09:58:11.592Z,1036.02
2023-02-08T09:59:11.599Z,1036.00
2023-02-08T10:00:11.593Z,1036.02
2023-02-08T10:01:11.623Z,1035.99
2023-02-08T10:02:11.600Z,1035.98
2023-02-08T10:03:11.624Z,1035.96
2023-02-08T10:04:11.609Z,1035.98
2023-02-08T10:05:11.634Z,1035.95
2023-02-08T10:06:11.619Z,1035.98
2023-02-08T10:07:11.650Z,1035.89
2023-02-08T10:08:11.645Z,1035.94
2023-02-08T10:09:11.668Z,1035.96
2023-02-08T10:10:11.640Z,1035.96
2023-02-08T10:11:11.641Z,1035.99
2023-02-08T10:12:11.643Z,1035.97
2023-02-08T10:13:15.290Z,1035.91
2023-02-08T10:14:11.662Z,1035.91
2023-02-08T10:15:12.469Z,1035.90
2023-02-08T10:16:11.702Z,1035.85
2023-02-08T10:17:11.676Z,1035.82
2023-02-08T10:18:11.689Z,1035.76
2023-02-08T10:19:11.677Z,1035.72
2023-02-08T10:20:11.680Z,1035.69
2023-02-08T10:24:27.650Z,1035.62
2023-02-08T10:25:27.636Z,1035.62
2023-02-08T10:26:27.634Z,1035.60
2023-02-08T10:27:27.654Z,1035.57
2023-02-08T10:28:27.681Z,1035.54
2023-02-08T10:29:27.695Z,1035.60
2023-02-08T10:30:27.699Z,1035.54
2023-02-08T10:31:27.715Z,1035.57
2023-02-08T10:32:27.664Z,1035.54
2023-02-08T10:33:27.667Z,1035.53
2023-02-08T10:34:27.670Z,1035.55
2023-02-08T10:35:27.671Z,1035.53
2023-02-08T10:36:27.673Z,1035.55
2023-02-08T10:37:27.689Z,1035.52
2023-02-08T10:38:37.256Z,1035.54
2023-02-08T10:39:27.687Z,1035.47
2023-02-08T10:40:27.726Z,1035.41
2023-02-08T10:41:27.697Z,1035.43
2023-02-08T10:42:27.702Z,1035.44
2023-02-08T10:43:27.708Z,1035.45
2023-02-08T10:44:27.719Z,1035.38
2023-02-08T10:45:27.724Z,1035.42
2023-02-08T10:46:27.721Z,1035.39
2023-02-08T10:47:27.729Z,1035.38
2023-02-08T10:48:27.737Z,1035.41
2023-02-08T10:49:27.748Z,1035.35
2023-02-08T10:50:30.129Z,1035.33
2023-02-08T10:51:27.761Z,1035.29
2023-02-08T10:52:27.763Z,1035.28
2023-02-08T10:53:27.769Z,1035.28
2023-02-08T10:54:27.782Z,1035.22
2023-02-08T10:55:27.793Z,1035.24
2023-02-08T10:56:27.823Z,1035.18
2023-02-08T10:57:27.807Z,1035.19
2023-02-08T10:58:27.804Z,1035.16
2023-02-08T11:00:15.368Z,1035.08
2023-02-08T11:01:15.424Z,1035.09
2023-02-08T11:02:15.380Z,1035.08
2023-02-08T11:03:15.399Z,1035.04
2023-02-08T11:04:15.444Z,1035.01
2023-02-08T11:05:15.412Z,1035.04
2023-02-08T11:06:15.420Z,1035.06
2023-02-08T11:07:15.421Z,1035.03
2023-02-08T11:08:15.432Z,1035.00
2023-02-08T11:09:15.445Z,1035.04
2023-02-08T11:10:15.467Z,1035.08
2023-02-08T11:11:15.463Z,1035.00
2023-02-08T11:12:15.504Z,1035.03
2023-02-08T11:13:15.479Z,1035.04
2023-02-08T11:14:15.481Z,1035.04
2023-02-08T11:15:15.496Z,1035.02
2023-02-08T11:17:01.100Z,1034.95
2023-02-08T11:17:58.063Z,1034.93
2023-02-08T11:18:58.077Z,1034.95
2023-02-08T11:19:58.075Z,1034.98
2023-02-08T11:20:58.693Z,1034.99
2023-02-08T11:31:17.248Z,1034.99
2023-02-08T11:32:17.215Z,1034.97
2023-02-08T11:33:17.218Z,1034.98
2023-02-08T11:34:17.224Z,1034.96
2023-02-08T11:35:17.233Z,1034.98
2023-02-08T11:36:17.259Z,1034.96
2023-02-08T11:37:17.248Z,1034.98
2023-02-08T11:38:17.252Z,1034.96
2023-02-08T11:39:17.260Z,1034.94
2023-02-08T11:40:17.278Z,1034.91
2023-02-08T11:41:17.288Z,1034.88
2023-02-08T11:42:17.289Z,1034.82
2023-02-08T11:43:17.298Z,1034.84
2023-02-08T11:44:17.318Z,1034.86
2023-02-08T11:45:17.323Z,1034.86
2023-02-08T11:46:17.386Z,1034.90
2023-02-08T11:47:18.240Z,1034.90
2023-02-08T11:48:17.344Z,1034.86
2023-02-08T11:49:17.354Z,1034.85
2023-02-08T11:50:17.362Z,1034.89
2023-02-08T11:51:17.377Z,1034.88
2023-02-08T11:52:17.390Z,1034.91
2023-02-08T11:53:17.391Z,1034.94
2023-02-08T11:54:17.732Z,1034.89
2023-02-08T11:55:17.415Z,1034.94
2023-02-08T12:10:46.495Z,1034.81
2023-02-08T12:11:46.483Z,1034.78
2023-02-08T12:12:46.485Z,1034.76
2023-02-08T12:13:46.494Z,1034.72
2023-02-08T12:14:46.501Z,1034.74
2023-02-08T12:15:57.787Z,1034.73
2023-02-08T13:24:43.297Z,1034.10
2023-02-08T13:25:43.641Z,1034.14
2023-02-08T13:26:43.287Z,1034.11
2023-02-08T13:27:43.292Z,1034.11
2023-02-08T13:28:43.304Z,1034.08
2023-02-08T13:29:43.309Z,1034.11
2023-02-08T13:30:43.691Z,1034.02
2023-02-08T13:31:43.358Z,1034.02
2023-02-08T13:32:44.267Z,1033.97
2023-02-08T13:33:59.150Z,1033.98
2023-02-08T13:34:43.350Z,1033.96
2023-02-08T13:35:43.726Z,1033.98
2023-02-08T13:36:43.395Z,1033.94
2023-02-08T13:37:43.370Z,1033.94
2023-02-08T13:38:43.388Z,1034.00
2023-02-08T13:39:43.396Z,1033.98
2023-02-08T13:40:43.812Z,1033.96
2023-02-08T13:41:43.407Z,1033.94